Big Lake, MN (55309)

2:55 AM CDT on August 28, 2016 (GMT -0500)
Nelson Sub on Euclid | | Change Station
Active Advisory: Dense Fog Advisory

Elev 942 ft 45.34 °N, 93.76 °W | Updated 22 seconds ago

Mostly Cloudy
Mostly Cloudy
59.7 °F
Feels Like 59.7 °F
N
1.7
Wind Variable Wind from South

Today
High -- | Low -- °F
--% Chance of Precip.
Yesterday
High -- | Low -- °F
Precip. -- in
Pressure 30.09 in
Visibility 1.8 miles
Clouds Mostly Cloudy 100 ft
Dew Point 59 °F
Humidity 99%
Rainfall 0.01 in
Snow Depth Not available.
6:32 AM 7:58 PM
Waning Crescent, 17% visible
METAR KCFE 280735Z AUTO 04003KT 1 3/4SM BR BKN001 15/14 A3009 RMK AO2 T01460139
Pressure 30.09 in
Visibility 1.8 miles
Clouds Mostly Cloudy 100 ft
Dew Point 59 °F
Humidity 99%
Rainfall 0.01 in
Snow Depth Not available.
6:32 AM 7:58 PM
Waning Crescent, 17% visible
METAR KCFE 280735Z AUTO 04003KT 1 3/4SM BR BKN001 15/14 A3009 RMK AO2 T01460139

10-Day Weather Forecast

Almanac

Astronomy

Aug. 28, 2016 Rise Set
Actual Time
Civil Twilight
Nautical Twilight
Astronomical Twilight
Moon
Length of Visible Light
Length of Day
Tomorrow will be .
, % of the Moon is Illuminated

Today's Extremes

State Highs State Lows

Community

WunderPhotos

Upload Photos

1,935,533 photos uploaded!

WunderBlog® & News

Nearby

Air Quality

  Air Quality AQ Index Pollutant
Not available.

Snow Depth

Station Depth Elevation

Earthquake Activity

City Distance Mag. Time & Date
Minimum magnitude displayed is 2.5.

Coastal Water Temperatures

Place Temperature

Stations

Nearby Weather Stations

Station Location Temp. Windchill Dew Point Humidity Wind Precip. Elev Updated Type
                   

Watches & Warnings

Dense Fog Advisory
Issued: 12:23 AM CDT Aug. 28, 2016 – National Weather Service

... Dense fog advisory remains in effect until 8 am CDT this
morning...

* visibility... less than a quarter mile.

* Impacts... it may be difficult to see the Road if you are out
driving tonight or early tomorrow morning.

Precautionary/preparedness actions...

A dense fog advisory means visibilities will frequently be
reduced to less than one quarter mile. If driving... slow down...
use your headlights... and leave plenty of distance ahead of you.